sensor_id;sensor_type;location;lat;lon;timestamp;temperature;humidity
8858;DHT22;4465;50.904;4.696;2023-08-31T00:01:18;12.00;99.90
8858;DHT22;4465;50.904;4.696;2023-08-31T00:03:46;12.00;99.90
8858;DHT22;4465;50.904;4.696;2023-08-31T00:06:12;12.00;99.90
8858;DHT22;4465;50.904;4.696;2023-08-31T00:08:38;12.00;99.90
8858;DHT22;4465;50.904;4.696;2023-08-31T00:11:04;12.00;99.90
8858;DHT22;4465;50.904;4.696;2023-08-31T00:13:33;12.00;99.90
8858;DHT22;4465;50.904;4.696;2023-08-31T00:15:59;12.00;99.90
8858;DHT22;4465;50.904;4.696;2023-08-31T00:18:25;12.00;99.90
8858;DHT22;4465;50.904;4.696;2023-08-31T00:20:54;11.90;99.90
8858;DHT22;4465;50.904;4.696;2023-08-31T00:23:20;12.00;99.90
8858;DHT22;4465;50.904;4.696;2023-08-31T00:25:46;11.90;99.90
8858;DHT22;4465;50.904;4.696;2023-08-31T00:28:14;11.90;99.90
8858;DHT22;4465;50.904;4.696;2023-08-31T00:30:41;11.90;99.90
8858;DHT22;4465;50.904;4.696;2023-08-31T00:33:07;11.90;99.90
8858;DHT22;4465;50.904;4.696;2023-08-31T00:35:36;11.80;99.90
8858;DHT22;4465;50.904;4.696;2023-08-31T00:38:02;11.80;99.90
8858;DHT22;4465;50.904;4.696;2023-08-31T00:40:30;11.80;99.90
8858;DHT22;4465;50.904;4.696;2023-08-31T00:43:03;11.80;99.90
8858;DHT22;4465;50.904;4.696;2023-08-31T00:45:29;11.80;99.90
8858;DHT22;4465;50.904;4.696;2023-08-31T00:47:55;11.70;99.90
8858;DHT22;4465;50.904;4.696;2023-08-31T00:50:22;11.70;99.90
8858;DHT22;4465;50.904;4.696;2023-08-31T00:52:48;11.70;99.90
8858;DHT22;4465;50.904;4.696;2023-08-31T00:55:17;11.70;99.90
8858;DHT22;4465;50.904;4.696;2023-08-31T00:57:44;11.70;99.90
8858;DHT22;4465;50.904;4.696;2023-08-31T01:00:13;11.70;99.90
8858;DHT22;4465;50.904;4.696;2023-08-31T01:03:01;11.70;99.90
8858;DHT22;4465;50.904;4.696;2023-08-31T01:05:33;11.70;99.90
8858;DHT22;4465;50.904;4.696;2023-08-31T01:08:29;11.60;99.90
8858;DHT22;4465;50.904;4.696;2023-08-31T01:13:57;11.70;99.90
8858;DHT22;4465;50.904;4.696;2023-08-31T01:16:27;11.60;99.90
8858;DHT22;4465;50.904;4.696;2023-08-31T01:18:56;11.60;99.90
8858;DHT22;4465;50.904;4.696;2023-08-31T01:21:30;11.60;99.90
8858;DHT22;4465;50.904;4.696;2023-08-31T01:23:58;11.60;99.90
8858;DHT22;4465;50.904;4.696;2023-08-31T01:26:24;11.60;99.90
8858;DHT22;4465;50.904;4.696;2023-08-31T01:28:51;11.60;99.90
8858;DHT22;4465;50.904;4.696;2023-08-31T01:31:18;11.60;99.90
8858;DHT22;4465;50.904;4.696;2023-08-31T01:33:44;11.60;99.90
8858;DHT22;4465;50.904;4.696;2023-08-31T01:36:20;11.50;99.90
8858;DHT22;4465;50.904;4.696;2023-08-31T01:38:58;11.50;99.90
8858;DHT22;4465;50.904;4.696;2023-08-31T01:41:27;11.50;99.90
8858;DHT22;4465;50.904;4.696;2023-08-31T01:43:54;11.50;99.90
8858;DHT22;4465;50.904;4.696;2023-08-31T01:46:21;11.50;99.90
8858;DHT22;4465;50.904;4.696;2023-08-31T01:48:49;11.50;99.90
8858;DHT22;4465;50.904;4.696;2023-08-31T01:51:16;11.50;99.90
8858;DHT22;4465;50.904;4.696;2023-08-31T01:53:45;11.50;99.90
8858;DHT22;4465;50.904;4.696;2023-08-31T01:56:11;11.50;99.90
8858;DHT22;4465;50.904;4.696;2023-08-31T01:58:39;11.50;99.90
8858;DHT22;4465;50.904;4.696;2023-08-31T02:01:07;11.50;99.90
8858;DHT22;4465;50.904;4.696;2023-08-31T02:03:33;11.50;99.90
8858;DHT22;4465;50.904;4.696;2023-08-31T02:05:59;11.60;99.90
8858;DHT22;4465;50.904;4.696;2023-08-31T02:08:25;11.60;99.90
8858;DHT22;4465;50.904;4.696;2023-08-31T02:10:53;11.60;99.90
8858;DHT22;4465;50.904;4.696;2023-08-31T02:13:20;11.60;99.90
8858;DHT22;4465;50.904;4.696;2023-08-31T02:15:45;11.60;99.90
8858;DHT22;4465;50.904;4.696;2023-08-31T02:18:11;11.70;99.90
8858;DHT22;4465;50.904;4.696;2023-08-31T02:20:39;11.70;99.90
8858;DHT22;4465;50.904;4.696;2023-08-31T02:23:05;11.70;99.90
8858;DHT22;4465;50.904;4.696;2023-08-31T02:25:32;11.70;99.90
8858;DHT22;4465;50.904;4.696;2023-08-31T02:27:58;11.70;99.90
8858;DHT22;4465;50.904;4.696;2023-08-31T02:30:24;11.70;99.90
8858;DHT22;4465;50.904;4.696;2023-08-31T02:32:49;11.70;99.90
8858;DHT22;4465;50.904;4.696;2023-08-31T02:35:17;11.70;99.90
8858;DHT22;4465;50.904;4.696;2023-08-31T02:37:43;11.70;99.90
8858;DHT22;4465;50.904;4.696;2023-08-31T02:40:09;11.70;99.90
8858;DHT22;4465;50.904;4.696;2023-08-31T02:42:36;11.70;99.90
8858;DHT22;4465;50.904;4.696;2023-08-31T02:45:02;11.70;99.90
8858;DHT22;4465;50.904;4.696;2023-08-31T02:47:30;11.70;99.90
8858;DHT22;4465;50.904;4.696;2023-08-31T02:49:56;11.70;99.90
8858;DHT22;4465;50.904;4.696;2023-08-31T02:52:22;11.70;99.90
8858;DHT22;4465;50.904;4.696;2023-08-31T02:54:48;11.70;99.90
8858;DHT22;4465;50.904;4.696;2023-08-31T02:57:16;11.70;99.90
8858;DHT22;4465;50.904;4.696;2023-08-31T02:59:45;11.70;99.90
8858;DHT22;4465;50.904;4.696;2023-08-31T03:02:12;11.80;99.90
8858;DHT22;4465;50.904;4.696;2023-08-31T03:04:38;11.80;99.90
8858;DHT22;4465;50.904;4.696;2023-08-31T03:07:05;11.80;99.90
8858;DHT22;4465;50.904;4.696;2023-08-31T03:09:33;11.80;99.90
8858;DHT22;4465;50.904;4.696;2023-08-31T03:11:59;11.80;99.90
8858;DHT22;4465;50.904;4.696;2023-08-31T03:14:25;11.80;99.90
8858;DHT22;4465;50.904;4.696;2023-08-31T03:16:53;11.80;99.90
8858;DHT22;4465;50.904;4.696;2023-08-31T03:19:19;11.80;99.90
8858;DHT22;4465;50.904;4.696;2023-08-31T03:21:47;11.80;99.90
8858;DHT22;4465;50.904;4.696;2023-08-31T03:24:15;11.90;99.90
8858;DHT22;4465;50.904;4.696;2023-08-31T03:26:42;11.90;99.90
8858;DHT22;4465;50.904;4.696;2023-08-31T03:29:07;11.90;99.90
8858;DHT22;4465;50.904;4.696;2023-08-31T03:31:35;11.90;99.90
8858;DHT22;4465;50.904;4.696;2023-08-31T03:34:03;11.90;99.90
8858;DHT22;4465;50.904;4.696;2023-08-31T03:36:29;11.90;99.90
8858;DHT22;4465;50.904;4.696;2023-08-31T03:38:59;11.90;99.90
8858;DHT22;4465;50.904;4.696;2023-08-31T03:41:28;12.00;99.90
8858;DHT22;4465;50.904;4.696;2023-08-31T03:43:56;12.00;99.90
8858;DHT22;4465;50.904;4.696;2023-08-31T03:46:22;12.00;99.90
8858;DHT22;4465;50.904;4.696;2023-08-31T03:48:50;12.00;99.90
8858;DHT22;4465;50.904;4.696;2023-08-31T03:51:16;12.00;99.90
8858;DHT22;4465;50.904;4.696;2023-08-31T03:53:42;12.10;99.90
8858;DHT22;4465;50.904;4.696;2023-08-31T03:56:09;12.10;99.90
8858;DHT22;4465;50.904;4.696;2023-08-31T03:58:35;12.10;99.90
8858;DHT22;4465;50.904;4.696;2023-08-31T04:01:01;12.20;99.90
8858;DHT22;4465;50.904;4.696;2023-08-31T04:03:29;12.10;99.90
8858;DHT22;4465;50.904;4.696;2023-08-31T04:05:56;12.20;99.90
8858;DHT22;4465;50.904;4.696;2023-08-31T04:08:21;12.20;99.90
8858;DHT22;4465;50.904;4.696;2023-08-31T04:10:48;12.20;99.90
8858;DHT22;4465;50.904;4.696;2023-08-31T04:13:13;12.20;99.90
8858;DHT22;4465;50.904;4.696;2023-08-31T04:15:39;12.30;99.90
8858;DHT22;4465;50.904;4.696;2023-08-31T04:18:05;12.30;99.90
8858;DHT22;4465;50.904;4.696;2023-08-31T04:20:33;12.30;99.90
8858;DHT22;4465;50.904;4.696;2023-08-31T04:22:59;12.30;99.90
8858;DHT22;4465;50.904;4.696;2023-08-31T04:25:25;12.30;99.90
8858;DHT22;4465;50.904;4.696;2023-08-31T04:27:54;12.30;99.90
8858;DHT22;4465;50.904;4.696;2023-08-31T04:30:19;12.30;99.90
8858;DHT22;4465;50.904;4.696;2023-08-31T04:32:45;12.30;99.90
8858;DHT22;4465;50.904;4.696;2023-08-31T04:35:12;12.30;99.90
8858;DHT22;4465;50.904;4.696;2023-08-31T04:37:40;12.30;99.90
8858;DHT22;4465;50.904;4.696;2023-08-31T04:40:10;12.30;99.90
8858;DHT22;4465;50.904;4.696;2023-08-31T04:42:39;12.20;99.90
8858;DHT22;4465;50.904;4.696;2023-08-31T04:45:08;12.20;99.90
8858;DHT22;4465;50.904;4.696;2023-08-31T04:47:34;12.20;99.90
8858;DHT22;4465;50.904;4.696;2023-08-31T04:50:00;12.20;99.90
8858;DHT22;4465;50.904;4.696;2023-08-31T04:52:26;12.10;99.90
8858;DHT22;4465;50.904;4.696;2023-08-31T04:54:51;12.10;99.90
8858;DHT22;4465;50.904;4.696;2023-08-31T04:57:17;12.10;99.90
8858;DHT22;4465;50.904;4.696;2023-08-31T04:59:43;12.10;99.90
8858;DHT22;4465;50.904;4.696;2023-08-31T05:02:09;12.00;99.90
8858;DHT22;4465;50.904;4.696;2023-08-31T05:04:35;12.00;99.90
8858;DHT22;4465;50.904;4.696;2023-08-31T05:07:01;12.00;99.90
8858;DHT22;4465;50.904;4.696;2023-08-31T05:09:29;12.00;99.90
8858;DHT22;4465;50.904;4.696;2023-08-31T05:11:58;12.00;99.90
8858;DHT22;4465;50.904;4.696;2023-08-31T05:14:25;12.00;99.90
8858;DHT22;4465;50.904;4.696;2023-08-31T05:16:50;12.00;99.90
8858;DHT22;4465;50.904;4.696;2023-08-31T05:19:19;12.00;99.90
8858;DHT22;4465;50.904;4.696;2023-08-31T05:21:45;12.00;99.90
8858;DHT22;4465;50.904;4.696;2023-08-31T05:24:11;12.10;99.90
8858;DHT22;4465;50.904;4.696;2023-08-31T05:26:36;12.10;99.90
8858;DHT22;4465;50.904;4.696;2023-08-31T05:29:02;12.10;99.90
8858;DHT22;4465;50.904;4.696;2023-08-31T05:31:33;12.10;99.90
8858;DHT22;4465;50.904;4.696;2023-08-31T05:33:59;12.20;99.90
8858;DHT22;4465;50.904;4.696;2023-08-31T05:36:27;12.20;99.90
8858;DHT22;4465;50.904;4.696;2023-08-31T05:38:56;12.20;99.90
8858;DHT22;4465;50.904;4.696;2023-08-31T05:41:24;12.20;99.90
8858;DHT22;4465;50.904;4.696;2023-08-31T05:43:50;12.30;99.90
8858;DHT22;4465;50.904;4.696;2023-08-31T05:46:18;12.30;99.90
8858;DHT22;4465;50.904;4.696;2023-08-31T05:48:45;12.30;99.90
8858;DHT22;4465;50.904;4.696;2023-08-31T05:51:10;12.40;99.90
8858;DHT22;4465;50.904;4.696;2023-08-31T05:53:36;12.40;99.90
8858;DHT22;4465;50.904;4.696;2023-08-31T05:56:03;12.40;99.90
8858;DHT22;4465;50.904;4.696;2023-08-31T05:58:41;12.40;99.90
8858;DHT22;4465;50.904;4.696;2023-08-31T06:01:07;12.50;99.90
8858;DHT22;4465;50.904;4.696;2023-08-31T06:03:35;12.50;99.90
8858;DHT22;4465;50.904;4.696;2023-08-31T06:06:02;12.50;99.90
8858;DHT22;4465;50.904;4.696;2023-08-31T06:08:29;12.60;99.90
8858;DHT22;4465;50.904;4.696;2023-08-31T06:10:56;12.60;99.90
8858;DHT22;4465;50.904;4.696;2023-08-31T06:13:22;12.60;99.90
8858;DHT22;4465;50.904;4.696;2023-08-31T06:15:48;12.70;99.90
8858;DHT22;4465;50.904;4.696;2023-08-31T06:18:14;12.70;99.90
8858;DHT22;4465;50.904;4.696;2023-08-31T06:20:40;12.80;99.90
8858;DHT22;4465;50.904;4.696;2023-08-31T06:23:10;12.80;99.90
8858;DHT22;4465;50.904;4.696;2023-08-31T06:25:35;12.80;99.90
8858;DHT22;4465;50.904;4.696;2023-08-31T06:28:01;12.80;99.90
8858;DHT22;4465;50.904;4.696;2023-08-31T06:30:31;12.90;99.90
8858;DHT22;4465;50.904;4.696;2023-08-31T06:32:59;12.90;99.90
8858;DHT22;4465;50.904;4.696;2023-08-31T06:35:25;12.90;99.90
8858;DHT22;4465;50.904;4.696;2023-08-31T06:37:51;12.90;99.90
8858;DHT22;4465;50.904;4.696;2023-08-31T06:40:17;13.00;99.90
8858;DHT22;4465;50.904;4.696;2023-08-31T06:42:43;13.00;99.90
8858;DHT22;4465;50.904;4.696;2023-08-31T06:45:09;13.10;99.90
8858;DHT22;4465;50.904;4.696;2023-08-31T06:47:35;13.10;99.90
8858;DHT22;4465;50.904;4.696;2023-08-31T06:50:01;13.20;99.90
8858;DHT22;4465;50.904;4.696;2023-08-31T06:52:29;13.20;99.90
8858;DHT22;4465;50.904;4.696;2023-08-31T06:54:55;13.30;99.90
8858;DHT22;4465;50.904;4.696;2023-08-31T06:57:25;13.30;99.90
8858;DHT22;4465;50.904;4.696;2023-08-31T06:59:51;13.40;99.90
8858;DHT22;4465;50.904;4.696;2023-08-31T07:02:17;13.50;99.90
8858;DHT22;4465;50.904;4.696;2023-08-31T07:04:44;13.50;99.90
8858;DHT22;4465;50.904;4.696;2023-08-31T07:07:11;13.60;99.90
8858;DHT22;4465;50.904;4.696;2023-08-31T07:09:42;13.70;99.90
8858;DHT22;4465;50.904;4.696;2023-08-31T07:12:08;13.70;99.90
8858;DHT22;4465;50.904;4.696;2023-08-31T07:14:37;13.80;99.90
8858;DHT22;4465;50.904;4.696;2023-08-31T07:17:03;13.90;99.90
8858;DHT22;4465;50.904;4.696;2023-08-31T07:19:31;13.90;99.90
8858;DHT22;4465;50.904;4.696;2023-08-31T07:22:00;14.00;99.90
8858;DHT22;4465;50.904;4.696;2023-08-31T07:24:26;14.00;99.90
8858;DHT22;4465;50.904;4.696;2023-08-31T07:26:52;14.10;99.90
8858;DHT22;4465;50.904;4.696;2023-08-31T07:29:18;14.20;99.90
8858;DHT22;4465;50.904;4.696;2023-08-31T07:31:44;14.20;99.90
8858;DHT22;4465;50.904;4.696;2023-08-31T07:34:10;14.30;99.90
8858;DHT22;4465;50.904;4.696;2023-08-31T07:36:35;14.40;99.90
8858;DHT22;4465;50.904;4.696;2023-08-31T07:39:01;14.40;99.90
8858;DHT22;4465;50.904;4.696;2023-08-31T07:41:29;14.50;99.90
8858;DHT22;4465;50.904;4.696;2023-08-31T07:43:55;14.60;99.90
8858;DHT22;4465;50.904;4.696;2023-08-31T07:46:21;14.60;99.90
8858;DHT22;4465;50.904;4.696;2023-08-31T07:48:49;14.70;99.90
8858;DHT22;4465;50.904;4.696;2023-08-31T07:51:16;14.70;99.90
8858;DHT22;4465;50.904;4.696;2023-08-31T07:53:42;14.70;99.90
8858;DHT22;4465;50.904;4.696;2023-08-31T07:56:08;14.80;99.90
8858;DHT22;4465;50.904;4.696;2023-08-31T07:58:34;14.80;99.90
8858;DHT22;4465;50.904;4.696;2023-08-31T08:01:00;14.90;99.90
8858;DHT22;4465;50.904;4.696;2023-08-31T08:03:25;15.00;99.90
8858;DHT22;4465;50.904;4.696;2023-08-31T08:05:56;15.00;99.90
8858;DHT22;4465;50.904;4.696;2023-08-31T08:08:21;15.10;99.90
8858;DHT22;4465;50.904;4.696;2023-08-31T08:10:54;15.10;99.90
8858;DHT22;4465;50.904;4.696;2023-08-31T08:13:22;15.20;99.90
8858;DHT22;4465;50.904;4.696;2023-08-31T08:15:48;15.20;99.90
8858;DHT22;4465;50.904;4.696;2023-08-31T08:18:17;15.30;99.90
8858;DHT22;4465;50.904;4.696;2023-08-31T08:20:48;15.30;99.90
8858;DHT22;4465;50.904;4.696;2023-08-31T08:23:14;15.30;99.90
8858;DHT22;4465;50.904;4.696;2023-08-31T08:25:43;15.40;99.90
8858;DHT22;4465;50.904;4.696;2023-08-31T08:28:09;15.40;99.90
8858;DHT22;4465;50.904;4.696;2023-08-31T08:30:37;15.40;99.90
8858;DHT22;4465;50.904;4.696;2023-08-31T08:33:05;15.50;99.90
8858;DHT22;4465;50.904;4.696;2023-08-31T08:35:31;15.50;99.90
8858;DHT22;4465;50.904;4.696;2023-08-31T08:37:59;15.60;99.90
8858;DHT22;4465;50.904;4.696;2023-08-31T08:40:25;15.60;99.90
8858;DHT22;4465;50.904;4.696;2023-08-31T08:42:53;15.60;99.90
8858;DHT22;4465;50.904;4.696;2023-08-31T08:45:19;15.60;99.90
8858;DHT22;4465;50.904;4.696;2023-08-31T08:47:48;15.70;99.90
8858;DHT22;4465;50.904;4.696;2023-08-31T08:50:18;15.70;99.90
8858;DHT22;4465;50.904;4.696;2023-08-31T08:52:45;15.80;99.90
8858;DHT22;4465;50.904;4.696;2023-08-31T08:55:12;15.80;99.90
8858;DHT22;4465;50.904;4.696;2023-08-31T08:57:38;15.80;99.90
8858;DHT22;4465;50.904;4.696;2023-08-31T09:00:06;15.80;99.90
8858;DHT22;4465;50.904;4.696;2023-08-31T09:02:35;15.90;99.90
8858;DHT22;4465;50.904;4.696;2023-08-31T09:05:01;15.90;99.90
8858;DHT22;4465;50.904;4.696;2023-08-31T09:07:30;15.90;99.90
8858;DHT22;4465;50.904;4.696;2023-08-31T09:10:00;15.90;99.90
8858;DHT22;4465;50.904;4.696;2023-08-31T09:12:25;15.90;99.90
8858;DHT22;4465;50.904;4.696;2023-08-31T09:14:59;15.90;99.90
8858;DHT22;4465;50.904;4.696;2023-08-31T09:17:25;16.00;99.90
8858;DHT22;4465;50.904;4.696;2023-08-31T09:20:01;16.00;99.90
8858;DHT22;4465;50.904;4.696;2023-08-31T09:22:29;16.10;99.90
8858;DHT22;4465;50.904;4.696;2023-08-31T09:24:55;16.10;99.90
8858;DHT22;4465;50.904;4.696;2023-08-31T09:27:21;16.20;99.90
8858;DHT22;4465;50.904;4.696;2023-08-31T09:29:48;16.20;99.90
8858;DHT22;4465;50.904;4.696;2023-08-31T09:32:18;16.20;99.90
8858;DHT22;4465;50.904;4.696;2023-08-31T09:34:44;16.30;99.90
8858;DHT22;4465;50.904;4.696;2023-08-31T09:37:10;16.20;99.90
8858;DHT22;4465;50.904;4.696;2023-08-31T09:39:39;16.30;99.90
8858;DHT22;4465;50.904;4.696;2023-08-31T09:42:08;16.40;99.90
8858;DHT22;4465;50.904;4.696;2023-08-31T09:44:40;16.40;99.90
8858;DHT22;4465;50.904;4.696;2023-08-31T09:47:08;16.40;99.90
8858;DHT22;4465;50.904;4.696;2023-08-31T09:49:35;16.50;99.90
8858;DHT22;4465;50.904;4.696;2023-08-31T09:52:05;16.50;99.90
8858;DHT22;4465;50.904;4.696;2023-08-31T09:54:32;16.60;99.90
8858;DHT22;4465;50.904;4.696;2023-08-31T09:57:01;16.70;99.90
8858;DHT22;4465;50.904;4.696;2023-08-31T09:59:28;16.70;99.90
8858;DHT22;4465;50.904;4.696;2023-08-31T10:01:54;16.80;99.90
8858;DHT22;4465;50.904;4.696;2023-08-31T10:04:22;16.80;99.90
8858;DHT22;4465;50.904;4.696;2023-08-31T10:06:51;16.80;99.90
8858;DHT22;4465;50.904;4.696;2023-08-31T10:09:18;16.90;99.90
8858;DHT22;4465;50.904;4.696;2023-08-31T10:11:44;16.90;99.90
8858;DHT22;4465;50.904;4.696;2023-08-31T10:14:11;17.00;99.90
8858;DHT22;4465;50.904;4.696;2023-08-31T10:16:39;17.10;99.90
8858;DHT22;4465;50.904;4.696;2023-08-31T10:19:05;17.20;99.90
8858;DHT22;4465;50.904;4.696;2023-08-31T10:21:32;17.30;99.90
8858;DHT22;4465;50.904;4.696;2023-08-31T10:24:02;17.40;99.90
8858;DHT22;4465;50.904;4.696;2023-08-31T10:26:33;17.60;99.90
8858;DHT22;4465;50.904;4.696;2023-08-31T10:28:59;17.70;99.90
8858;DHT22;4465;50.904;4.696;2023-08-31T10:31:30;17.80;99.90
8858;DHT22;4465;50.904;4.696;2023-08-31T10:34:00;17.90;99.90
8858;DHT22;4465;50.904;4.696;2023-08-31T10:36:44;18.00;99.90
8858;DHT22;4465;50.904;4.696;2023-08-31T10:39:17;18.00;99.90
8858;DHT22;4465;50.904;4.696;2023-08-31T10:41:57;18.10;99.90
8858;DHT22;4465;50.904;4.696;2023-08-31T10:44:29;18.10;99.90
8858;DHT22;4465;50.904;4.696;2023-08-31T10:46:59;18.20;99.90
8858;DHT22;4465;50.904;4.696;2023-08-31T10:49:26;18.20;99.90
8858;DHT22;4465;50.904;4.696;2023-08-31T10:52:15;18.30;99.90
8858;DHT22;4465;50.904;4.696;2023-08-31T10:54:46;18.40;99.90
8858;DHT22;4465;50.904;4.696;2023-08-31T10:57:12;18.40;99.90
8858;DHT22;4465;50.904;4.696;2023-08-31T11:05:14;18.50;99.90
8858;DHT22;4465;50.904;4.696;2023-08-31T11:07:44;18.50;99.90
8858;DHT22;4465;50.904;4.696;2023-08-31T11:10:18;18.50;99.90
8858;DHT22;4465;50.904;4.696;2023-08-31T11:12:51;18.60;99.90
8858;DHT22;4465;50.904;4.696;2023-08-31T11:15:19;18.60;99.90
8858;DHT22;4465;50.904;4.696;2023-08-31T11:17:46;18.60;99.90
8858;DHT22;4465;50.904;4.696;2023-08-31T11:20:20;18.70;99.90
8858;DHT22;4465;50.904;4.696;2023-08-31T11:22:50;18.60;99.90
8858;DHT22;4465;50.904;4.696;2023-08-31T11:25:19;18.60;99.90
8858;DHT22;4465;50.904;4.696;2023-08-31T11:27:59;18.50;99.90
8858;DHT22;4465;50.904;4.696;2023-08-31T11:30:30;18.50;99.90
8858;DHT22;4465;50.904;4.696;2023-08-31T11:33:06;18.60;99.90
8858;DHT22;4465;50.904;4.696;2023-08-31T11:35:35;18.60;99.90
8858;DHT22;4465;50.904;4.696;2023-08-31T11:38:01;18.60;99.90
8858;DHT22;4465;50.904;4.696;2023-08-31T11:40:31;18.60;99.90
8858;DHT22;4465;50.904;4.696;2023-08-31T11:43:04;18.50;99.90
8858;DHT22;4465;50.904;4.696;2023-08-31T11:45:31;18.50;99.90
8858;DHT22;4465;50.904;4.696;2023-08-31T11:47:59;18.40;99.90
8858;DHT22;4465;50.904;4.696;2023-08-31T11:50:25;18.40;99.90
8858;DHT22;4465;50.904;4.696;2023-08-31T11:52:51;18.40;99.90
8858;DHT22;4465;50.904;4.696;2023-08-31T11:55:18;18.40;99.90
8858;DHT22;4465;50.904;4.696;2023-08-31T11:57:54;18.40;99.90
8858;DHT22;4465;50.904;4.696;2023-08-31T12:00:21;18.50;99.90
8858;DHT22;4465;50.904;4.696;2023-08-31T12:02:57;18.50;99.90
8858;DHT22;4465;50.904;4.696;2023-08-31T12:05:23;18.50;99.90
8858;DHT22;4465;50.904;4.696;2023-08-31T12:07:49;18.50;99.90
8858;DHT22;4465;50.904;4.696;2023-08-31T12:10:19;18.50;99.90
8858;DHT22;4465;50.904;4.696;2023-08-31T12:12:44;18.60;99.90
8858;DHT22;4465;50.904;4.696;2023-08-31T12:15:10;18.70;99.90
8858;DHT22;4465;50.904;4.696;2023-08-31T12:17:37;18.80;99.90
8858;DHT22;4465;50.904;4.696;2023-08-31T12:20:05;18.90;99.90
8858;DHT22;4465;50.904;4.696;2023-08-31T12:22:34;18.90;99.90
8858;DHT22;4465;50.904;4.696;2023-08-31T12:25:00;18.90;99.90
8858;DHT22;4465;50.904;4.696;2023-08-31T12:27:26;19.00;99.90
8858;DHT22;4465;50.904;4.696;2023-08-31T12:29:55;19.00;99.90
8858;DHT22;4465;50.904;4.696;2023-08-31T12:32:22;19.00;99.90
8858;DHT22;4465;50.904;4.696;2023-08-31T12:34:50;19.10;99.90
8858;DHT22;4465;50.904;4.696;2023-08-31T12:37:16;19.00;99.90
8858;DHT22;4465;50.904;4.696;2023-08-31T12:39:42;18.80;99.90
8858;DHT22;4465;50.904;4.696;2023-08-31T12:42:10;18.80;99.90
8858;DHT22;4465;50.904;4.696;2023-08-31T12:44:38;18.70;99.90
8858;DHT22;4465;50.904;4.696;2023-08-31T12:47:04;18.60;99.90
8858;DHT22;4465;50.904;4.696;2023-08-31T12:49:32;18.50;99.90
8858;DHT22;4465;50.904;4.696;2023-08-31T12:51:58;18.50;99.90
8858;DHT22;4465;50.904;4.696;2023-08-31T12:54:26;18.40;99.90
8858;DHT22;4465;50.904;4.696;2023-08-31T12:56:52;18.40;99.90
8858;DHT22;4465;50.904;4.696;2023-08-31T12:59:18;18.20;99.90
8858;DHT22;4465;50.904;4.696;2023-08-31T13:01:43;18.20;99.90
8858;DHT22;4465;50.904;4.696;2023-08-31T13:04:09;18.20;99.90
8858;DHT22;4465;50.904;4.696;2023-08-31T13:06:35;18.10;99.90
8858;DHT22;4465;50.904;4.696;2023-08-31T13:09:02;18.10;99.90
8858;DHT22;4465;50.904;4.696;2023-08-31T13:11:29;18.10;99.90
8858;DHT22;4465;50.904;4.696;2023-08-31T13:13:57;18.10;99.90
8858;DHT22;4465;50.904;4.696;2023-08-31T13:16:23;18.20;99.90
8858;DHT22;4465;50.904;4.696;2023-08-31T13:18:50;18.20;99.90
8858;DHT22;4465;50.904;4.696;2023-08-31T13:21:18;18.20;99.90
8858;DHT22;4465;50.904;4.696;2023-08-31T13:23:44;18.30;99.90
8858;DHT22;4465;50.904;4.696;2023-08-31T13:26:10;18.20;99.90
8858;DHT22;4465;50.904;4.696;2023-08-31T13:28:38;18.30;99.90
8858;DHT22;4465;50.904;4.696;2023-08-31T13:31:06;18.40;99.90
8858;DHT22;4465;50.904;4.696;2023-08-31T13:33:32;18.50;99.90
8858;DHT22;4465;50.904;4.696;2023-08-31T13:36:00;18.60;99.90
8858;DHT22;4465;50.904;4.696;2023-08-31T13:38:26;18.60;99.90
8858;DHT22;4465;50.904;4.696;2023-08-31T13:40:58;18.70;99.90
8858;DHT22;4465;50.904;4.696;2023-08-31T13:43:24;18.70;99.90
8858;DHT22;4465;50.904;4.696;2023-08-31T13:45:50;18.70;99.90
8858;DHT22;4465;50.904;4.696;2023-08-31T13:48:16;18.80;99.90
8858;DHT22;4465;50.904;4.696;2023-08-31T13:50:42;18.80;99.90
8858;DHT22;4465;50.904;4.696;2023-08-31T13:53:09;18.90;99.90
8858;DHT22;4465;50.904;4.696;2023-08-31T13:55:37;19.00;99.90
8858;DHT22;4465;50.904;4.696;2023-08-31T13:58:04;18.90;99.90
8858;DHT22;4465;50.904;4.696;2023-08-31T14:00:31;18.90;99.90
8858;DHT22;4465;50.904;4.696;2023-08-31T14:02:57;18.90;99.90
8858;DHT22;4465;50.904;4.696;2023-08-31T14:05:28;18.80;99.90
8858;DHT22;4465;50.904;4.696;2023-08-31T14:07:56;18.80;99.90
8858;DHT22;4465;50.904;4.696;2023-08-31T14:10:24;18.70;99.90
8858;DHT22;4465;50.904;4.696;2023-08-31T14:12:52;18.70;99.90
8858;DHT22;4465;50.904;4.696;2023-08-31T14:15:19;18.80;99.90
8858;DHT22;4465;50.904;4.696;2023-08-31T14:17:45;18.80;99.90
8858;DHT22;4465;50.904;4.696;2023-08-31T14:20:11;18.80;99.90
8858;DHT22;4465;50.904;4.696;2023-08-31T14:22:40;18.80;99.90
8858;DHT22;4465;50.904;4.696;2023-08-31T14:25:10;18.80;99.90
8858;DHT22;4465;50.904;4.696;2023-08-31T14:27:36;18.80;99.90
8858;DHT22;4465;50.904;4.696;2023-08-31T14:30:05;18.90;99.90
8858;DHT22;4465;50.904;4.696;2023-08-31T14:32:34;18.80;99.90
8858;DHT22;4465;50.904;4.696;2023-08-31T14:35:00;18.90;99.90
8858;DHT22;4465;50.904;4.696;2023-08-31T14:37:26;18.90;99.90
8858;DHT22;4465;50.904;4.696;2023-08-31T14:39:52;19.00;99.90
8858;DHT22;4465;50.904;4.696;2023-08-31T14:42:20;19.00;99.90
8858;DHT22;4465;50.904;4.696;2023-08-31T14:44:47;19.10;99.90
8858;DHT22;4465;50.904;4.696;2023-08-31T14:47:14;19.10;99.90
8858;DHT22;4465;50.904;4.696;2023-08-31T14:49:40;19.20;99.90
8858;DHT22;4465;50.904;4.696;2023-08-31T14:52:06;19.20;99.90
8858;DHT22;4465;50.904;4.696;2023-08-31T14:54:34;19.20;99.90
8858;DHT22;4465;50.904;4.696;2023-08-31T14:57:01;19.20;99.90
8858;DHT22;4465;50.904;4.696;2023-08-31T14:59:29;19.10;99.90
8858;DHT22;4465;50.904;4.696;2023-08-31T15:01:55;19.10;99.90
8858;DHT22;4465;50.904;4.696;2023-08-31T15:04:21;19.10;99.90
8858;DHT22;4465;50.904;4.696;2023-08-31T15:06:47;19.10;99.90
8858;DHT22;4465;50.904;4.696;2023-08-31T15:09:15;19.00;99.90
8858;DHT22;4465;50.904;4.696;2023-08-31T15:11:43;19.00;99.90
8858;DHT22;4465;50.904;4.696;2023-08-31T15:14:11;19.00;99.90
8858;DHT22;4465;50.904;4.696;2023-08-31T15:16:37;18.90;99.90
8858;DHT22;4465;50.904;4.696;2023-08-31T15:19:03;18.90;99.90
8858;DHT22;4465;50.904;4.696;2023-08-31T15:21:29;18.90;99.90
8858;DHT22;4465;50.904;4.696;2023-08-31T15:24:01;19.00;99.90
8858;DHT22;4465;50.904;4.696;2023-08-31T15:26:28;18.90;99.90
8858;DHT22;4465;50.904;4.696;2023-08-31T15:28:54;18.90;99.90
8858;DHT22;4465;50.904;4.696;2023-08-31T15:31:22;18.80;99.90
8858;DHT22;4465;50.904;4.696;2023-08-31T15:33:48;18.80;99.90
8858;DHT22;4465;50.904;4.696;2023-08-31T15:36:14;18.80;99.90
8858;DHT22;4465;50.904;4.696;2023-08-31T15:38:40;18.70;99.90
8858;DHT22;4465;50.904;4.696;2023-08-31T15:41:09;18.70;99.90
8858;DHT22;4465;50.904;4.696;2023-08-31T15:43:36;18.70;99.90
8858;DHT22;4465;50.904;4.696;2023-08-31T15:46:04;18.60;99.90
8858;DHT22;4465;50.904;4.696;2023-08-31T15:48:32;18.50;99.90
8858;DHT22;4465;50.904;4.696;2023-08-31T15:50:59;18.50;99.90
8858;DHT22;4465;50.904;4.696;2023-08-31T15:53:28;18.50;99.90
8858;DHT22;4465;50.904;4.696;2023-08-31T15:55:54;18.50;99.90
8858;DHT22;4465;50.904;4.696;2023-08-31T15:58:20;18.40;99.90
8858;DHT22;4465;50.904;4.696;2023-08-31T16:00:46;18.40;99.90
8858;DHT22;4465;50.904;4.696;2023-08-31T16:03:12;18.30;99.90
8858;DHT22;4465;50.904;4.696;2023-08-31T16:05:41;18.20;99.90
8858;DHT22;4465;50.904;4.696;2023-08-31T16:08:07;18.20;99.90
8858;DHT22;4465;50.904;4.696;2023-08-31T16:10:35;18.20;99.90
8858;DHT22;4465;50.904;4.696;2023-08-31T16:13:03;18.20;99.90